Time;durP1;ratioP1;P1;durP2;ratioP2;P2;SDS_P1;SDS_P2;PMS_P1;PMS_P2;Temp;Humidity;BMP_temperature;BMP_pressure;BME280_temperature;BME280_humidity;BME280_pressure;Samples;Min_cycle;Max_cycle;Signal;HPM_P1;HPM_P2
2021/06/30 00:02:29;;;;;;;;;;;;;;;0.01;0.00;59042.03;10282905;28;20080;-61
2021/06/30 00:07:34;;;;;;;7.75;7.05;;;;;;;0.01;0.00;59042.03;10281047;28;19967;-60
2021/06/30 00:12:38;;;;;;;7.60;7.00;;;;;;;0.01;0.00;59042.03;10280115;28;20045;-60
2021/06/30 00:17:42;;;;;;;9.15;7.65;;;;;;;0.01;0.00;59042.03;10281039;28;20474;-60
2021/06/30 00:22:47;;;;;;;7.78;7.07;;;;;;;0.01;0.00;59042.03;10280488;28;20060;-61
2021/06/30 00:27:51;;;;;;;8.68;7.10;;;;;;;0.01;0.00;59042.03;10280290;28;20485;-60
2021/06/30 00:32:55;;;;;;;8.18;7.38;;;;;;;0.01;0.00;59042.03;10279650;28;20068;-60
2021/06/30 00:38:00;;;;;;;9.57;7.47;;;;;;;0.01;0.00;59042.03;10280128;28;20049;-60
2021/06/30 00:43:04;;;;;;;9.38;8.40;;;;;;;0.01;0.00;59042.03;10279731;28;22140;-60
2021/06/30 00:48:08;;;;;;;10.68;7.47;;;;;;;0.01;0.00;59042.03;10277725;28;20492;-60
2021/06/30 00:53:13;;;;;;;8.07;7.38;;;;;;;0.01;0.00;59042.03;10278769;28;20053;-60
2021/06/30 00:58:17;;;;;;;11.65;7.95;;;;;;;0.01;0.00;59042.03;10279065;28;20469;-60
2021/06/30 01:03:21;;;;;;;10.65;8.32;;;;;;;0.01;0.00;59042.03;10278979;28;20056;-60
2021/06/30 01:08:25;;;;;;;11.25;8.00;;;;;;;0.01;0.00;59042.03;10279443;28;20079;-60
2021/06/30 01:13:29;;;;;;;7.85;7.07;;;;;;;0.01;0.00;59042.03;10278843;28;20052;-60
2021/06/30 01:18:34;;;;;;;9.48;7.88;;;;;;;0.01;0.00;59042.03;10277970;28;20064;-60
2021/06/30 01:23:40;;;;;;;9.15;7.78;;;;;;;0.01;0.00;59042.03;10277567;28;20048;-60
2021/06/30 01:28:44;;;;;;;11.23;7.65;;;;;;;0.01;0.00;59042.03;10278147;28;20091;-60
2021/06/30 01:33:48;;;;;;;10.38;7.10;;;;;;;0.01;0.00;59042.03;10277056;28;20048;-60
2021/06/30 01:38:53;;;;;;;11.55;7.95;;;;;;;0.01;0.00;59042.03;10277426;28;20052;-60
2021/06/30 01:43:56;;;;;;;12.57;8.73;;;;;;;0.01;0.00;59042.03;10277736;28;20095;-60
2021/06/30 01:49:00;;;;;;;12.75;8.70;;;;;;;0.01;0.00;59042.03;10276367;28;20502;-60
2021/06/30 01:54:02;;;;;;;8.73;7.93;;;;;;;0.01;0.00;59042.03;10277287;28;20049;-59
2021/06/30 01:59:07;;;;;;;9.75;7.45;;;;;;;0.01;0.00;59042.03;10277048;28;20052;-60
2021/06/30 02:04:11;;;;;;;12.70;7.63;;;;;;;0.01;0.00;59042.03;10276374;28;20084;-59
2021/06/30 02:09:16;;;;;;;12.38;8.15;;;;;;;0.01;0.00;59042.03;10276903;28;20045;-57
2021/06/30 02:14:20;;;;;;;8.93;7.72;;;;;;;0.01;0.00;59042.03;10276448;28;20049;-57
2021/06/30 02:19:23;;;;;;;8.15;7.40;;;;;;;0.01;0.00;59042.03;10275664;28;20437;-53
2021/06/30 02:24:28;;;;;;;8.73;7.82;;;;;;;0.01;0.00;59042.03;10276347;28;20493;-58
2021/06/30 02:29:32;;;;;;;9.68;7.68;;;;;;;0.01;0.00;59042.03;10276307;28;20044;-52
2021/06/30 02:34:36;;;;;;;;;;;;;;;0.01;0.00;59042.03;10275834;28;20060;-57
2021/06/30 02:39:41;;;;;;;11.02;8.05;;;;;;;0.01;0.00;59042.03;10276119;28;19925;-57
2021/06/30 02:44:44;;;;;;;9.23;8.30;;;;;;;0.01;0.00;59042.03;10275676;28;20088;-57
2021/06/30 02:49:48;;;;;;;8.05;7.35;;;;;;;0.01;0.00;59042.03;10275337;28;20418;-58
2021/06/30 02:54:53;;;;;;;8.18;7.47;;;;;;;0.01;0.00;59042.03;10275451;28;20551;-51
2021/06/30 02:59:56;;;;;;;11.50;8.50;;;;;;;0.01;0.00;59042.03;10275292;28;20478;-58
2021/06/30 03:05:00;;;;;;;9.15;7.95;;;;;;;0.01;0.00;59042.03;10314352;28;20076;-58
2021/06/30 03:10:07;;;;;;;14.27;7.03;;;;;;;0.01;0.00;59042.03;10315842;28;20063;-57
2021/06/30 03:15:12;;;;;;;8.02;7.22;;;;;;;0.01;0.00;59042.03;10319296;28;20087;-57
2021/06/30 03:20:16;;;;;;;8.32;7.43;;;;;;;0.01;0.00;59042.03;10322807;28;20059;-57
2021/06/30 03:25:21;;;;;;;8.25;7.55;;;;;;;0.01;0.00;59042.03;10303196;28;20079;-55
2021/06/30 03:30:25;;;;;;;8.00;7.30;;;;;;;0.01;0.00;59042.03;10319373;28;20075;-58
2021/06/30 03:35:29;;;;;;;8.95;7.97;;;;;;;0.01;0.00;59042.03;10322650;28;20505;-57
2021/06/30 03:40:34;;;;;;;8.02;7.22;;;;;;;0.01;0.00;59042.03;10321284;28;20083;-57
2021/06/30 03:45:38;;;;;;;10.93;6.70;;;;;;;0.01;0.00;59042.03;10319481;28;20091;-56
2021/06/30 03:50:41;;;;;;;11.63;7.78;;;;;;;0.01;0.00;59042.03;10300736;28;20124;-57
2021/06/30 03:55:47;;;;;;;8.65;7.80;;;;;;;0.01;0.00;59042.03;10319693;28;20053;-57
2021/06/30 04:00:50;;;;;;;10.25;7.60;;;;;;;0.01;0.00;59042.03;10322405;28;20044;-55
2021/06/30 04:05:54;;;;;;;9.13;7.90;;;;;;;0.01;0.00;59042.03;10321573;28;20095;-58
2021/06/30 04:10:59;;;;;;;12.73;8.20;;;;;;;0.01;0.00;59042.03;10321784;28;20067;-58
2021/06/30 04:16:02;;;;;;;11.00;7.90;;;;;;;0.01;0.00;59042.03;10321540;28;20441;-58
2021/06/30 04:21:08;;;;;;;10.73;8.43;;;;;;;0.01;0.00;59042.03;10321740;28;20047;-59
2021/06/30 04:26:13;;;;;;;9.18;8.18;;;;;;;0.01;0.00;59042.03;10320890;28;20100;-58
2021/06/30 04:31:17;;;;;;;9.93;7.70;;;;;;;0.01;0.00;59042.03;10321262;28;20401;-58
2021/06/30 04:36:21;;;;;;;10.43;8.38;;;;;;;0.01;0.00;59042.03;10316795;28;20361;-58
2021/06/30 04:41:26;;;;;;;8.55;7.75;;;;;;;0.01;0.00;59042.03;10317041;28;20091;-58
2021/06/30 04:46:30;;;;;;;13.07;8.43;;;;;;;0.01;0.00;59042.03;10317478;28;20521;-58
2021/06/30 04:51:33;;;;;;;8.38;7.57;;;;;;;0.01;0.00;59042.03;10320410;28;20055;-58
2021/06/30 04:56:41;;;;;;;9.00;7.85;;;;;;;0.01;0.00;59042.03;10319708;28;20044;-59
2021/06/30 05:01:45;;;;;;;11.10;8.55;;;;;;;0.01;0.00;59042.03;10319336;28;20056;-59
2021/06/30 05:06:49;;;;;;;9.80;8.20;;;;;;;0.01;0.00;59042.03;10320520;28;20079;-59
2021/06/30 05:11:54;;;;;;;9.35;7.82;;;;;;;0.01;0.00;59042.03;10301177;28;20507;-58
2021/06/30 05:16:57;;;;;;;9.43;8.57;;;;;;;0.01;0.00;59042.03;10320043;28;20074;-58
2021/06/30 05:22:02;;;;;;;9.60;8.43;;;;;;;0.01;0.00;59042.03;10319123;28;20514;-58
2021/06/30 05:27:07;;;;;;;23.23;9.25;;;;;;;0.01;0.00;59042.03;10319757;28;20076;-58
2021/06/30 05:32:11;;;;;;;13.85;8.95;;;;;;;0.01;0.00;59042.03;10318737;28;20075;-56
2021/06/30 05:37:15;;;;;;;8.80;7.88;;;;;;;0.01;0.00;59042.03;10318839;28;20048;-58
2021/06/30 05:42:20;;;;;;;9.48;8.50;;;;;;;0.01;0.00;59042.03;10318439;28;20083;-58
2021/06/30 05:47:23;;;;;;;16.30;8.82;;;;;;;0.01;0.00;59042.03;10318203;28;20084;-58
2021/06/30 05:52:27;;;;;;;;;;;;;;;0.01;0.00;59042.03;10319082;28;20044;-58
2021/06/30 05:57:31;;;;;;;9.82;8.38;;;;;;;0.01;0.00;59042.03;10317816;28;19920;-58
2021/06/30 06:02:35;;;;;;;8.60;7.88;;;;;;;0.01;0.00;59042.03;10317322;28;20059;-58
2021/06/30 06:07:39;;;;;;;11.93;10.65;;;;;;;0.01;0.00;59042.03;10316653;28;20090;-59
2021/06/30 06:12:44;;;;;;;12.48;8.98;;;;;;;0.01;0.00;59042.03;10316236;28;20048;-58
2021/06/30 06:17:48;;;;;;;13.38;11.93;;;;;;;0.01;0.00;59042.03;10316427;28;20075;-58
2021/06/30 06:22:51;;;;;;;;;;;;;;;0.01;0.00;59042.03;10316601;28;20075;-58
2021/06/30 06:27:56;;;;;;;10.15;8.45;;;;;;;0.01;0.00;59042.03;10316641;28;19964;-58
2021/06/30 06:33:00;;;;;;;12.10;7.85;;;;;;;0.01;0.00;59042.03;10315776;28;20056;-58
2021/06/30 06:38:03;;;;;;;;;;;;;;;0.01;0.00;59042.03;10315996;28;20118;-58
2021/06/30 06:43:09;;;;;;;8.27;7.45;;;;;;;0.01;0.00;59042.03;10314977;28;19943;-58
2021/06/30 06:48:13;;;;;;;8.15;6.72;;;;;;;0.01;0.00;59042.03;10316087;28;20084;-58
2021/06/30 06:53:16;;;;;;;;;;;;;;;0.01;0.00;59042.03;10316797;28;20044;-58
2021/06/30 06:58:21;;;;;;;11.52;10.43;;;;;;;0.01;0.00;59042.03;10316135;28;19924;-58
2021/06/30 07:03:25;;;;;;;9.73;7.43;;;;;;;0.01;0.00;59042.03;10316231;28;20055;-58
2021/06/30 07:08:28;;;;;;;;;;;;;;;0.01;0.00;59042.03;10316156;28;20076;-58
2021/06/30 07:13:33;;;;;;;11.27;7.30;;;;;;;0.01;0.00;59042.03;10315485;28;19955;-57
2021/06/30 07:18:37;;;;;;;13.38;8.25;;;;;;;0.01;0.00;59042.03;10315095;28;20095;-57
2021/06/30 07:23:41;;;;;;;8.45;7.65;;;;;;;0.01;0.00;59042.03;10315217;28;20055;-58
2021/06/30 07:28:46;;;;;;;8.32;7.28;;;;;;;0.01;0.00;59042.03;10315550;28;20310;-58
2021/06/30 07:33:51;;;;;;;9.02;6.88;;;;;;;0.01;0.00;59042.03;10315064;28;20525;-57
2021/06/30 07:38:54;;;;;;;9.57;6.15;;;;;;;0.01;0.00;59042.03;10315528;28;20048;-57
2021/06/30 07:44:00;;;;;;;7.47;6.78;;;;;;;0.01;0.00;59042.03;10315115;28;20048;-58
2021/06/30 07:48:59;;;;;;;7.78;7.07;;;;;;;0.01;0.00;59042.03;10315219;28;20506;-58
2021/06/30 07:53:57;;;;;;;8.23;7.57;;;;;;;0.01;0.00;59042.03;10314862;28;20485;-58
2021/06/30 07:58:56;;;;;;;9.25;7.43;;;;;;;0.01;0.00;59042.03;10320695;28;20445;-58
2021/06/30 08:03:56;;;;;;;7.82;6.85;;;;;;;0.01;0.00;59042.03;10322490;28;20486;-58
2021/06/30 08:08:55;;;;;;;10.18;7.30;;;;;;;0.01;0.00;59042.03;10323004;28;20103;-58
2021/06/30 08:13:55;;;;;;;7.05;6.35;;;;;;;0.01;0.00;59042.03;10322454;28;20044;-58
2021/06/30 08:18:53;;;;;;;9.30;7.45;;;;;;;0.01;0.00;59042.03;10321968;28;20040;-58
2021/06/30 08:23:54;;;;;;;11.65;6.95;;;;;;;0.01;0.00;59042.03;10321818;28;20056;-58
2021/06/30 08:28:52;;;;;;;9.63;6.43;;;;;;;0.01;0.00;59042.03;10320721;28;20505;-58
2021/06/30 08:33:51;;;;;;;10.32;7.57;;;;;;;0.01;0.00;59042.03;10320772;28;20083;-58
2021/06/30 08:38:50;;;;;;;13.63;8.88;;;;;;;0.01;0.00;59042.03;10320190;28;20095;-58
2021/06/30 08:43:50;;;;;;;7.68;6.88;;;;;;;0.01;0.00;59042.03;10302389;28;20072;-58
2021/06/30 08:48:51;;;;;;;7.38;6.72;;;;;;;0.01;0.00;59042.03;10319612;28;20502;-58
2021/06/30 08:53:53;;;;;;;7.78;6.97;;;;;;;0.01;0.00;59042.03;10320680;28;20048;-58
2021/06/30 08:58:54;;;;;;;9.32;7.88;;;;;;;0.01;0.00;59042.03;10319529;28;20051;-58
2021/06/30 09:03:54;;;;;;;11.40;6.95;;;;;;;0.01;0.00;59042.03;10320379;28;20043;-58
2021/06/30 09:09:07;;;;;;;9.13;7.30;;;;;;;0.01;0.00;59042.03;10318396;28;20103;-58
2021/06/30 09:14:30;;;;;;;11.80;10.77;;;;;;;0.01;0.00;59042.03;10319649;28;20067;-58
2021/06/30 09:20:05;;;;;;;11.88;6.72;;;;;;;0.01;0.00;59042.03;10319522;28;20044;-59
2021/06/30 09:25:05;;;;;;;7.88;7.18;;;;;;;0.01;0.00;59042.03;10319509;28;20522;-58
2021/06/30 09:30:07;;;;;;;7.45;6.82;;;;;;;0.01;0.00;59042.03;10319230;28;20514;-58
2021/06/30 09:35:20;;;;;;;11.67;10.07;;;;;;;0.01;0.00;59042.03;10319349;28;20458;-58
2021/06/30 09:40:19;;;;;;;7.43;6.73;;;;;;;0.01;0.00;59042.03;10318316;28;20044;-58
2021/06/30 09:45:21;;;;;;;6.80;5.72;;;;;;;0.01;0.00;59042.03;10318382;28;20049;-58
2021/06/30 09:50:37;;;;;;;7.07;6.18;;;;;;;0.01;0.00;59042.03;10299992;28;20060;-58
2021/06/30 09:55:36;;;;;;;8.10;6.45;;;;;;;0.01;0.00;59042.03;10317830;28;20084;-58
2021/06/30 10:00:37;;;;;;;6.40;5.75;;;;;;;0.01;0.00;59042.03;10318026;28;20068;-58
2021/06/30 10:05:36;;;;;;;5.75;5.25;;;;;;;0.01;0.00;59042.03;10318266;28;20048;-58
2021/06/30 10:10:35;;;;;;;6.85;5.65;;;;;;;0.01;0.00;59042.03;10317241;28;20072;-58
2021/06/30 10:15:35;;;;;;;5.53;5.07;;;;;;;0.01;0.00;59042.03;10316998;28;20049;-58
2021/06/30 10:20:35;;;;;;;5.13;3.90;;;;;;;0.01;0.00;59042.03;10316933;28;20501;-59
2021/06/30 10:25:34;;;;;;;4.05;3.63;;;;;;;0.01;0.00;59042.03;10317589;28;20083;-58
2021/06/30 10:30:33;;;;;;;4.53;4.10;;;;;;;0.01;0.00;59042.03;10316730;28;20087;-58
2021/06/30 10:35:32;;;;;;;7.32;4.50;;;;;;;0.01;0.00;59042.03;10316752;28;20059;-58
2021/06/30 10:40:33;;;;;;;6.88;5.10;;;;;;;0.01;0.00;59042.03;10317173;28;20104;-58
2021/06/30 10:45:32;;;;;;;5.82;5.32;;;;;;;0.01;0.00;59042.03;10316721;28;20056;-58
2021/06/30 10:50:39;;;;;;;6.53;5.95;;;;;;;0.01;0.00;59042.03;10315502;28;20076;-58
2021/06/30 10:55:51;;;;;;;8.18;5.18;;;;;;;0.01;0.00;59042.03;10315843;28;20052;-58
2021/06/30 11:00:52;;;;;;;9.60;5.97;;;;;;;0.01;0.00;59042.03;10316895;28;20051;-58
2021/06/30 11:05:52;;;;;;;6.68;5.65;;;;;;;0.01;0.00;59042.03;10316373;28;20506;-58
2021/06/30 11:10:53;;;;;;;6.20;5.60;;;;;;;0.01;0.00;59042.03;10315100;28;20541;-58
2021/06/30 11:15:51;;;;;;;11.85;6.28;;;;;;;0.01;0.00;59042.03;10315977;28;20048;-58
2021/06/30 11:21:11;;;;;;;5.63;5.07;;;;;;;0.01;0.00;59042.03;10297895;28;20059;-58
2021/06/30 11:26:34;;;;;;;7.40;5.80;;;;;;;0.01;0.00;59042.03;10316593;28;20037;-57
2021/06/30 11:31:40;;;;;;;7.13;6.20;;;;;;;0.01;0.00;59042.03;10319553;28;20071;-58
2021/06/30 11:36:40;;;;;;;6.20;5.60;;;;;;;0.01;0.00;59042.03;10323700;28;20387;-58
2021/06/30 11:41:44;;;;;;;8.38;6.32;;;;;;;0.01;0.00;59042.03;10323942;28;20048;-58
2021/06/30 11:46:44;;;;;;;11.50;10.38;;;;;;;0.01;0.00;59042.03;10323647;28;20063;-58
2021/06/30 11:51:43;;;;;;;9.82;7.65;;;;;;;0.01;0.00;59042.03;10323468;28;20448;-58
2021/06/30 11:56:44;;;;;;;6.38;5.80;;;;;;;0.01;0.00;59042.03;10322788;28;20515;-58
2021/06/30 12:01:42;;;;;;;6.55;6.03;;;;;;;0.01;0.00;59042.03;10322492;28;20474;-58
2021/06/30 12:06:42;;;;;;;7.40;5.90;;;;;;;0.01;0.00;59042.03;10320870;28;20044;-58
2021/06/30 12:11:46;;;;;;;7.57;6.80;;;;;;;0.01;0.00;59042.03;10322082;28;20076;-58
2021/06/30 12:16:50;;;;;;;7.20;5.95;;;;;;;0.01;0.00;59042.03;10322088;28;20529;-58
2021/06/30 12:21:51;;;;;;;15.65;14.32;;;;;;;0.01;0.00;59042.03;10303909;28;20056;-57
2021/06/30 12:26:59;;;;;;;7.07;6.47;;;;;;;0.01;0.00;59042.03;10321724;28;20521;-58
2021/06/30 12:31:59;;;;;;;7.63;6.85;;;;;;;0.01;0.00;59042.03;10321585;28;20084;-58
2021/06/30 12:36:58;;;;;;;7.38;6.78;;;;;;;0.01;0.00;59042.03;10321223;28;20068;-57
2021/06/30 12:42:01;;;;;;;6.10;5.60;;;;;;;0.01;0.00;59042.03;10321558;28;20051;-57
2021/06/30 12:47:11;;;;;;;8.25;7.40;;;;;;;0.01;0.00;59042.03;10321643;28;20056;-58
2021/06/30 12:52:21;;;;;;;10.02;8.90;;;;;;;0.01;0.00;59042.03;10321681;28;20462;-58
2021/06/30 12:57:22;;;;;;;6.65;6.00;;;;;;;0.01;0.00;59042.03;10321508;28;20430;-58
2021/06/30 13:02:21;;;;;;;7.10;6.15;;;;;;;0.01;0.00;59042.03;10321405;28;20044;-57
2021/06/30 13:07:36;;;;;;;7.03;6.43;;;;;;;0.01;0.00;59042.03;10320452;28;20044;-57
2021/06/30 13:12:37;;;;;;;7.25;6.53;;;;;;;0.01;0.00;59042.03;10319650;28;20110;-56
2021/06/30 13:17:35;;;;;;;8.07;6.53;;;;;;;0.01;0.00;59042.03;10320265;28;20409;-57
2021/06/30 13:22:44;;;;;;;7.20;6.45;;;;;;;0.01;0.00;59042.03;10319491;28;20056;-58
2021/06/30 13:27:48;;;;;;;8.88;6.63;;;;;;;0.01;0.00;59042.03;10319127;28;20049;-58
2021/06/30 13:38:10;;;;;;;11.52;6.80;;;;;;;0.01;0.00;59042.03;10318884;28;20041;-59
2021/06/30 13:43:13;;;;;;;6.22;5.65;;;;;;;0.01;0.00;59042.03;10318603;28;20088;-59
2021/06/30 13:48:13;;;;;;;9.57;7.05;;;;;;;0.01;0.00;59042.03;10317782;28;20481;-59
2021/06/30 13:53:12;;;;;;;7.72;6.15;;;;;;;0.01;0.00;59042.03;10317349;28;20083;-59
2021/06/30 13:58:13;;;;;;;7.25;6.40;;;;;;;0.01;0.00;59042.03;10317284;28;20044;-59
2021/06/30 14:03:12;;;;;;;15.90;6.82;;;;;;;0.01;0.00;59042.03;10318253;28;20397;-59
2021/06/30 14:08:14;;;;;;;10.00;6.28;;;;;;;0.01;0.00;59042.03;10317679;28;20079;-59
2021/06/30 14:13:15;;;;;;;7.50;6.77;;;;;;;0.01;0.00;59042.03;10317200;28;20076;-59
2021/06/30 14:18:14;;;;;;;8.80;7.25;;;;;;;0.01;0.00;59042.03;10316885;28;20048;-59
2021/06/30 14:23:16;;;;;;;8.70;7.68;;;;;;;0.01;0.00;59042.03;10317072;28;20041;-59
2021/06/30 14:28:17;;;;;;;9.55;6.88;;;;;;;0.01;0.00;59042.03;10314652;28;20067;-54
2021/06/30 14:33:15;;;;;;;8.68;6.65;;;;;;;0.01;0.00;59042.03;10309145;28;20481;-56
2021/06/30 14:38:15;;;;;;;10.35;7.53;;;;;;;0.01;0.00;59042.03;10311241;28;20079;-56
2021/06/30 14:43:13;;;;;;;12.20;9.80;;;;;;;0.01;0.00;59042.03;10311906;28;20084;-58
2021/06/30 14:48:16;;;;;;;7.30;6.60;;;;;;;0.01;0.00;59042.03;10313895;28;20418;-58
2021/06/30 14:53:15;;;;;;;8.02;7.20;;;;;;;0.01;0.00;59042.03;10313713;28;20087;-58
2021/06/30 14:58:14;;;;;;;9.20;6.60;;;;;;;0.01;0.00;59042.03;10311430;28;20056;-57
2021/06/30 15:03:14;;;;;;;8.10;7.10;;;;;;;0.01;0.00;59042.03;10314262;28;20052;-56
2021/06/30 15:08:13;;;;;;;11.00;7.40;;;;;;;0.01;0.00;59042.03;10310918;28;20072;-56
2021/06/30 15:13:12;;;;;;;8.23;6.72;;;;;;;0.01;0.00;59042.03;10313979;28;20080;-55
2021/06/30 15:18:12;;;;;;;9.27;6.65;;;;;;;0.01;0.00;59042.03;10311785;28;20047;-58
2021/06/30 15:23:12;;;;;;;6.65;5.63;;;;;;;0.01;0.00;59042.03;10314450;28;20099;-53
2021/06/30 15:28:11;;;;;;;6.45;5.85;;;;;;;0.01;0.00;59042.03;10313695;28;20079;-56
2021/06/30 15:33:10;;;;;;;8.82;7.18;;;;;;;0.01;0.00;59042.03;10295306;28;20522;-58
2021/06/30 15:38:08;;;;;;;9.43;8.52;;;;;;;0.01;0.00;59042.03;10313885;28;20048;-57
2021/06/30 15:43:09;;;;;;;10.02;7.60;;;;;;;0.01;0.00;59042.03;10313643;28;20076;-56
2021/06/30 15:48:08;;;;;;;11.25;7.95;;;;;;;0.01;0.00;59042.03;10310200;28;20529;-58
2021/06/30 15:53:07;;;;;;;8.75;7.90;;;;;;;0.01;0.00;59042.03;10312070;28;20083;-58
2021/06/30 15:58:06;;;;;;;18.92;11.68;;;;;;;0.01;0.00;59042.03;10309893;28;20085;-58
2021/06/30 16:03:06;;;;;;;14.80;9.75;;;;;;;0.01;0.00;59042.03;10313655;28;20084;-58
2021/06/30 16:08:05;;;;;;;8.63;7.80;;;;;;;0.01;0.00;59042.03;10314124;28;20055;-58
2021/06/30 16:13:05;;;;;;;9.25;8.05;;;;;;;0.01;0.00;59042.03;10312361;28;20079;-56
2021/06/30 16:18:04;;;;;;;14.23;8.88;;;;;;;0.01;0.00;59042.03;10307805;28;20083;-58
2021/06/30 16:23:04;;;;;;;10.13;7.38;;;;;;;0.01;0.00;59042.03;10318047;28;20110;-58
2021/06/30 16:28:05;;;;;;;11.83;7.77;;;;;;;0.01;0.00;59042.03;10317424;28;20083;-58
2021/06/30 16:33:04;;;;;;;8.73;7.65;;;;;;;0.01;0.00;59042.03;10320075;28;20084;-58
2021/06/30 16:38:04;;;;;;;8.05;7.18;;;;;;;0.01;0.00;59042.03;10321055;28;20159;-58
2021/06/30 16:43:04;;;;;;;10.68;7.50;;;;;;;0.01;0.00;59042.03;10320533;28;20080;-58
2021/06/30 16:48:02;;;;;;;10.30;7.70;;;;;;;0.01;0.00;59042.03;10321050;28;20040;-57
2021/06/30 16:53:01;;;;;;;7.80;7.10;;;;;;;0.01;0.00;59042.03;10319772;28;20076;-58
2021/06/30 16:58:02;;;;;;;8.77;8.00;;;;;;;0.01;0.00;59042.03;10320497;28;20091;-57
2021/06/30 17:03:01;;;;;;;16.30;10.68;;;;;;;0.01;0.00;59042.03;10319533;28;20051;-57
2021/06/30 17:08:00;;;;;;;11.82;9.10;;;;;;;0.01;0.00;59042.03;10319621;28;20075;-58
2021/06/30 17:12:59;;;;;;;12.07;8.25;;;;;;;0.01;0.00;59042.03;10313195;28;20083;-57
2021/06/30 17:17:59;;;;;;;11.23;8.10;;;;;;;0.01;0.00;59042.03;10298996;28;20421;-60
2021/06/30 17:22:58;;;;;;;9.25;8.38;;;;;;;0.01;0.00;59042.03;10316566;28;20063;-60
2021/06/30 17:27:57;;;;;;;14.45;8.90;;;;;;;0.01;0.00;59042.03;10298831;28;20498;-60
2021/06/30 17:32:57;;;;;;;15.40;9.05;;;;;;;0.01;0.00;59042.03;10318878;28;20076;-60
2021/06/30 17:37:58;;;;;;;9.85;8.18;;;;;;;0.01;0.00;59042.03;10318718;28;20041;-60
2021/06/30 17:42:57;;;;;;;12.75;7.72;;;;;;;0.01;0.00;59042.03;10318065;28;20483;-60
2021/06/30 17:47:57;;;;;;;12.63;8.70;;;;;;;0.01;0.00;59042.03;10316129;28;20101;-59
2021/06/30 17:52:57;;;;;;;12.15;8.73;;;;;;;0.01;0.00;59042.03;10318319;28;20072;-59
2021/06/30 17:57:57;;;;;;;10.52;8.52;;;;;;;0.01;0.00;59042.03;10315875;28;20048;-58
2021/06/30 18:02:56;;;;;;;13.73;9.77;;;;;;;0.01;0.00;59042.03;10317671;28;20485;-59
2021/06/30 18:07:55;;;;;;;12.90;8.32;;;;;;;0.01;0.00;59042.03;10316365;28;20083;-59
2021/06/30 18:12:55;;;;;;;13.45;9.65;;;;;;;0.01;0.00;59042.03;10316224;28;20072;-60
2021/06/30 18:18:00;;;;;;;12.32;8.38;;;;;;;0.01;0.00;59042.03;10312334;28;20076;-59
2021/06/30 18:22:59;;;;;;;14.13;8.43;;;;;;;0.01;0.00;59042.03;10314206;28;20075;-59
2021/06/30 18:27:57;;;;;;;10.00;8.40;;;;;;;0.01;0.00;59042.03;10304892;28;20481;-59
2021/06/30 18:32:57;;;;;;;9.80;8.80;;;;;;;0.01;0.00;59042.03;10315609;28;20076;-59
2021/06/30 18:37:57;;;;;;;16.58;9.50;;;;;;;0.01;0.00;59042.03;10309571;28;20071;-60
2021/06/30 18:42:56;;;;;;;14.15;8.95;;;;;;;0.01;0.00;59042.03;10315859;28;20092;-58
2021/06/30 18:47:55;;;;;;;16.48;9.50;;;;;;;0.01;0.00;59042.03;10315435;28;20070;-60
2021/06/30 18:52:54;;;;;;;12.07;8.68;;;;;;;0.01;0.00;59042.03;10307246;28;20064;-59
2021/06/30 18:57:56;;;;;;;11.18;9.50;;;;;;;0.01;0.00;59042.03;10306839;28;20071;-58
2021/06/30 19:02:55;;;;;;;12.90;8.90;;;;;;;0.01;0.00;59042.03;10314756;28;20056;-60
2021/06/30 19:07:54;;;;;;;13.73;9.98;;;;;;;0.01;0.00;59042.03;10315703;28;20063;-60
2021/06/30 19:12:54;;;;;;;10.30;9.07;;;;;;;0.01;0.00;59042.03;10311819;28;20071;-58
2021/06/30 19:17:54;;;;;;;20.10;9.85;;;;;;;0.01;0.00;59042.03;10305091;28;20118;-59
2021/06/30 19:22:55;;;;;;;13.07;9.77;;;;;;;0.01;0.00;59042.03;10301825;28;20092;-60
2021/06/30 19:27:55;;;;;;;14.75;10.00;;;;;;;0.01;0.00;59042.03;10308618;28;20460;-60
2021/06/30 19:32:54;;;;;;;14.02;9.88;;;;;;;0.01;0.00;59042.03;10313743;28;20147;-60
2021/06/30 19:37:53;;;;;;;9.88;8.98;;;;;;;0.01;0.00;59042.03;10311917;28;20537;-60
2021/06/30 19:42:57;;;;;;;9.23;8.43;;;;;;;0.01;0.00;59042.03;10315167;28;20057;-61
2021/06/30 19:47:57;;;;;;;11.00;9.88;;;;;;;0.01;0.00;59042.03;10307067;28;20052;-60
2021/06/30 19:52:56;;;;;;;10.07;9.18;;;;;;;0.01;0.00;59042.03;10315093;28;20068;-60
2021/06/30 19:57:57;;;;;;;12.95;8.93;;;;;;;0.01;0.00;59042.03;10313495;28;20072;-60
2021/06/30 20:02:56;;;;;;;9.20;8.30;;;;;;;0.01;0.00;59042.03;10315851;28;20072;-60
2021/06/30 20:07:57;;;;;;;16.85;8.05;;;;;;;0.01;0.00;59042.03;10320629;28;20257;-60
2021/06/30 20:12:57;;;;;;;8.43;7.63;;;;;;;0.01;0.00;59042.03;10319866;28;20510;-61
2021/06/30 20:17:57;;;;;;;8.27;6.95;;;;;;;0.01;0.00;59042.03;10321985;28;20049;-60
2021/06/30 20:22:56;;;;;;;8.05;7.25;;;;;;;0.01;0.00;59042.03;10319101;28;20083;-60
2021/06/30 20:27:56;;;;;;;10.32;7.47;;;;;;;0.01;0.00;59042.03;10315139;28;20106;-59
2021/06/30 20:32:58;;;;;;;8.48;7.05;;;;;;;0.01;0.00;59042.03;10319056;28;20540;-59
2021/06/30 20:37:57;;;;;;;8.82;7.03;;;;;;;0.01;0.00;59042.03;10319992;28;20079;-59
2021/06/30 20:42:57;;;;;;;7.50;6.53;;;;;;;0.01;0.00;59042.03;10320679;28;20072;-59
2021/06/30 20:47:56;;;;;;;9.65;6.82;;;;;;;0.01;0.00;59042.03;10319178;28;20041;-58
2021/06/30 20:52:55;;;;;;;9.50;7.35;;;;;;;0.01;0.00;59042.03;10319602;28;20569;-59
2021/06/30 20:57:54;;;;;;;10.48;6.25;;;;;;;0.01;0.00;59042.03;10320091;28;20048;-59
2021/06/30 21:02:54;;;;;;;7.68;6.97;;;;;;;0.01;0.00;59042.03;10320266;28;20036;-58
2021/06/30 21:07:53;;;;;;;16.98;7.70;;;;;;;0.01;0.00;59042.03;10319567;28;20055;-59
2021/06/30 21:12:51;;;;;;;7.25;5.95;;;;;;;0.01;0.00;59042.03;10318988;28;20083;-59
2021/06/30 21:17:50;;;;;;;10.25;6.20;;;;;;;0.01;0.00;59042.03;10319351;28;20090;-59
2021/06/30 21:22:52;;;;;;;11.07;6.40;;;;;;;0.01;0.00;59042.03;10319254;28;20052;-59
2021/06/30 21:27:50;;;;;;;10.02;6.35;;;;;;;0.01;0.00;59042.03;10320103;28;20041;-59
2021/06/30 21:32:49;;;;;;;7.65;5.72;;;;;;;0.01;0.00;59042.03;10318004;28;20433;-59
2021/06/30 21:37:49;;;;;;;8.38;6.00;;;;;;;0.01;0.00;59042.03;10318924;28;20044;-59
2021/06/30 21:42:49;;;;;;;7.57;5.97;;;;;;;0.01;0.00;59042.03;10318381;28;20052;-59
2021/06/30 21:47:48;;;;;;;9.15;5.43;;;;;;;0.01;0.00;59042.03;10317827;28;20490;-59
2021/06/30 21:52:47;;;;;;;11.05;5.97;;;;;;;0.01;0.00;59042.03;10318504;28;20083;-59
2021/06/30 21:57:46;;;;;;;9.48;5.60;;;;;;;0.01;0.00;59042.03;10318061;28;20466;-59
2021/06/30 22:02:46;;;;;;;7.63;5.80;;;;;;;0.01;0.00;59042.03;10317925;28;20425;-59
2021/06/30 22:07:46;;;;;;;6.63;6.00;;;;;;;0.01;0.00;59042.03;10317858;28;20040;-59
2021/06/30 22:12:46;;;;;;;6.95;5.40;;;;;;;0.01;0.00;59042.03;10317484;28;20079;-59
2021/06/30 22:17:48;;;;;;;6.65;5.22;;;;;;;0.01;0.00;59042.03;10317000;28;20048;-59
2021/06/30 22:22:50;;;;;;;10.10;5.78;;;;;;;0.01;0.00;59042.03;10317301;28;20114;-59
2021/06/30 22:27:49;;;;;;;7.47;5.97;;;;;;;0.01;0.00;59042.03;10316988;28;20044;-59
2021/06/30 22:32:49;;;;;;;8.40;5.85;;;;;;;0.01;0.00;59042.03;10315652;28;20090;-59
2021/06/30 22:37:47;;;;;;;8.88;6.25;;;;;;;0.01;0.00;59042.03;10316050;28;20552;-60
2021/06/30 22:42:46;;;;;;;8.85;5.63;;;;;;;0.01;0.00;59042.03;10316381;28;20374;-59
2021/06/30 22:47:45;;;;;;;7.25;5.95;;;;;;;0.01;0.00;59042.03;10298045;28;20055;-59
2021/06/30 22:52:46;;;;;;;9.43;7.13;;;;;;;0.01;0.00;59042.03;10316311;28;20502;-59
2021/06/30 22:57:45;;;;;;;9.52;7.10;;;;;;;0.01;0.00;59042.03;10315519;28;20071;-59
2021/06/30 23:02:44;;;;;;;8.38;6.25;;;;;;;0.01;0.00;59042.03;10316433;28;20084;-58
2021/06/30 23:07:43;;;;;;;12.48;6.82;;;;;;;0.01;0.00;59042.03;10316336;28;20068;-59
2021/06/30 23:12:44;;;;;;;7.32;5.63;;;;;;;0.01;0.00;59042.03;10316107;28;20059;-59
2021/06/30 23:17:43;;;;;;;11.85;6.90;;;;;;;0.01;0.00;59042.03;10315494;28;20458;-59
2021/06/30 23:22:44;;;;;;;6.80;6.10;;;;;;;0.01;0.00;59042.03;10316078;28;20429;-59
2021/06/30 23:27:45;;;;;;;7.47;5.03;;;;;;;0.01;0.00;59042.03;10318910;28;20048;-59
2021/06/30 23:32:44;;;;;;;9.70;5.70;;;;;;;0.01;0.00;59042.03;10323815;28;20057;-59
2021/06/30 23:37:42;;;;;;;5.78;5.28;;;;;;;0.01;0.00;59042.03;10323796;28;20040;-59
2021/06/30 23:42:41;;;;;;;9.95;5.30;;;;;;;0.01;0.00;59042.03;10323455;28;20084;-59
2021/06/30 23:47:41;;;;;;;6.55;5.75;;;;;;;0.01;0.00;59042.03;10305591;28;20422;-59
2021/06/30 23:52:40;;;;;;;9.02;4.95;;;;;;;0.01;0.00;59042.03;10323090;28;20060;-59
2021/06/30 23:57:39;;;;;;;6.28;5.68;;;;;;;0.01;0.00;59042.03;10322846;28;20065;-59
